createdAt,value
2018-12-18T00:02:15.686Z,11.68
2018-12-18T00:04:43.283Z,10.43
2018-12-18T00:07:10.858Z,10.20
2018-12-18T00:09:38.442Z,10.75
2018-12-18T00:12:06.003Z,10.20
2018-12-18T00:14:33.581Z,7.83
2018-12-18T00:17:01.190Z,8.35
2018-12-18T00:19:28.796Z,8.40
2018-12-18T00:21:56.351Z,6.90
2018-12-18T00:24:23.939Z,6.17
2018-12-18T00:26:51.514Z,7.12
2018-12-18T00:29:19.190Z,8.03
2018-12-18T00:31:46.759Z,5.40
2018-12-18T00:34:14.352Z,5.60
2018-12-18T00:36:41.914Z,6.42
2018-12-18T00:39:11.511Z,4.70
2018-12-18T00:41:39.231Z,5.92
2018-12-18T00:44:06.798Z,4.85
2018-12-18T00:46:34.386Z,4.80
2018-12-18T00:49:01.947Z,5.78
2018-12-18T00:51:29.534Z,4.33
2018-12-18T00:53:57.103Z,4.80
2018-12-18T00:56:24.694Z,4.65
2018-12-18T00:58:52.855Z,4.03
2018-12-18T01:01:20.446Z,4.72
2018-12-18T01:03:52.748Z,3.87
2018-12-18T01:06:17.626Z,4.25
2018-12-18T01:08:45.187Z,3.90
2018-12-18T01:11:12.987Z,4.10
2018-12-18T01:13:40.554Z,4.28
2018-12-18T01:16:08.139Z,4.12
2018-12-18T01:18:35.693Z,3.62
2018-12-18T01:21:03.491Z,3.40
2018-12-18T01:23:31.123Z,3.67
2018-12-18T01:25:58.706Z,3.58
2018-12-18T01:28:26.270Z,3.65
2018-12-18T01:30:54.049Z,3.40
2018-12-18T01:33:21.630Z,5.30
2018-12-18T01:35:49.226Z,3.20
2018-12-18T01:38:16.787Z,4.00
2018-12-18T01:40:44.363Z,4.15
2018-12-18T01:43:11.948Z,3.85
2018-12-18T01:45:39.503Z,3.75
2018-12-18T01:48:07.087Z,3.70
2018-12-18T01:50:34.683Z,3.80
2018-12-18T01:53:02.652Z,3.20
2018-12-18T01:55:30.211Z,3.90
2018-12-18T01:57:57.803Z,4.05
2018-12-18T02:00:25.430Z,4.00
2018-12-18T02:02:53.014Z,4.08
2018-12-18T02:05:20.569Z,4.65
2018-12-18T02:07:48.160Z,4.08
2018-12-18T02:10:15.723Z,4.17
2018-12-18T02:12:43.915Z,4.10
2018-12-18T02:15:11.490Z,3.90
2018-12-18T02:17:39.660Z,3.65
2018-12-18T02:20:07.438Z,4.50
2018-12-18T02:22:35.446Z,5.05
2018-12-18T02:25:03.886Z,4.53
2018-12-18T02:27:31.471Z,5.35
2018-12-18T02:29:59.039Z,3.98
2018-12-18T02:32:26.622Z,4.62
2018-12-18T02:34:54.188Z,4.90
2018-12-18T02:37:21.787Z,4.08
2018-12-18T02:39:49.380Z,5.07
2018-12-18T02:42:16.953Z,5.20
2018-12-18T02:44:44.555Z,4.62
2018-12-18T02:47:12.115Z,3.87
2018-12-18T02:49:39.700Z,4.55
2018-12-18T02:52:07.675Z,3.90
2018-12-18T02:54:35.854Z,4.03
2018-12-18T02:57:03.420Z,4.67
2018-12-18T02:59:31.008Z,5.20
2018-12-18T03:01:58.631Z,4.20
2018-12-18T03:04:26.226Z,5.47
2018-12-18T03:06:53.787Z,4.15
2018-12-18T03:09:21.371Z,5.42
2018-12-18T03:11:48.964Z,4.40
2018-12-18T03:14:16.570Z,4.28
2018-12-18T03:16:44.125Z,4.25
2018-12-18T03:19:11.827Z,4.67
2018-12-18T03:21:40.828Z,4.92
2018-12-18T03:24:08.482Z,6.05
2018-12-18T03:26:36.045Z,4.30
2018-12-18T03:29:03.642Z,5.37
2018-12-18T03:31:31.564Z,5.55
2018-12-18T03:33:59.132Z,5.08
2018-12-18T03:36:26.723Z,5.47
2018-12-18T03:38:54.287Z,6.72
2018-12-18T03:41:21.879Z,4.28
2018-12-18T03:43:49.438Z,4.92
2018-12-18T03:46:17.021Z,4.37
2018-12-18T03:48:44.584Z,5.70
2018-12-18T03:51:12.184Z,4.45
2018-12-18T03:53:39.739Z,4.87
2018-12-18T03:56:07.441Z,4.20
2018-12-18T03:58:35.005Z,4.20
2018-12-18T04:01:02.687Z,6.60
2018-12-18T04:03:30.251Z,5.67
2018-12-18T04:05:57.835Z,4.45
2018-12-18T04:08:25.401Z,4.35
2018-12-18T04:10:52.984Z,4.22
2018-12-18T04:13:20.588Z,4.22
2018-12-18T04:15:48.291Z,4.37
2018-12-18T04:18:15.882Z,4.53
2018-12-18T04:20:43.451Z,4.28
2018-12-18T04:23:11.050Z,4.17
2018-12-18T04:25:38.624Z,4.22
2018-12-18T04:28:06.215Z,4.12
2018-12-18T04:30:33.768Z,5.47
2018-12-18T04:33:01.365Z,4.30
2018-12-18T04:35:28.918Z,4.30
2018-12-18T04:37:56.507Z,4.20
2018-12-18T04:40:24.063Z,4.37
2018-12-18T04:42:51.652Z,4.20
2018-12-18T04:45:19.230Z,4.95
2018-12-18T04:47:46.806Z,4.37
2018-12-18T04:50:14.370Z,3.83
2018-12-18T04:52:41.959Z,4.70
2018-12-18T04:55:09.518Z,4.77
2018-12-18T04:57:37.846Z,4.28
2018-12-18T05:00:06.963Z,4.75
2018-12-18T05:02:34.520Z,6.75
2018-12-18T05:05:02.116Z,5.17
2018-12-18T05:07:29.686Z,4.45
2018-12-18T05:09:57.274Z,5.28
2018-12-18T05:12:24.840Z,4.90
2018-12-18T05:14:52.435Z,4.60
2018-12-18T05:17:20.051Z,5.95
2018-12-18T05:19:47.662Z,4.20
2018-12-18T05:22:15.217Z,5.17
2018-12-18T05:24:42.808Z,5.00
2018-12-18T05:27:10.362Z,5.13
2018-12-18T05:29:37.956Z,5.60
2018-12-18T05:32:05.528Z,5.60
2018-12-18T05:34:33.119Z,5.03
2018-12-18T05:37:00.670Z,5.28
2018-12-18T05:39:28.255Z,5.28
2018-12-18T05:41:55.851Z,6.50
2018-12-18T05:44:23.521Z,5.42
2018-12-18T05:46:51.107Z,5.30
2018-12-18T05:49:18.768Z,4.97
2018-12-18T05:51:46.368Z,5.08
2018-12-18T05:54:13.928Z,5.90
2018-12-18T05:56:41.850Z,5.47
2018-12-18T05:59:09.408Z,5.70
2018-12-18T06:01:37.001Z,6.03
2018-12-18T06:04:04.562Z,5.95
2018-12-18T06:06:32.519Z,5.40
2018-12-18T06:09:00.250Z,5.67
2018-12-18T06:11:28.359Z,6.53
2018-12-18T06:13:55.966Z,6.67
2018-12-18T06:16:24.266Z,6.65
2018-12-18T06:18:51.828Z,7.30
2018-12-18T06:21:19.415Z,5.95
2018-12-18T06:23:46.998Z,5.60
2018-12-18T06:26:14.597Z,6.65
2018-12-18T06:28:42.183Z,7.12
2018-12-18T06:31:09.735Z,6.47
2018-12-18T06:33:37.319Z,6.92
2018-12-18T06:36:04.879Z,5.87
2018-12-18T06:38:32.470Z,6.20
2018-12-18T06:41:00.028Z,5.50
2018-12-18T06:43:28.618Z,6.12
2018-12-18T06:45:56.180Z,6.03
2018-12-18T06:48:23.771Z,6.20
2018-12-18T06:50:51.339Z,6.05
2018-12-18T06:53:20.309Z,6.75
2018-12-18T06:55:47.862Z,6.05
2018-12-18T06:58:15.450Z,5.92
2018-12-18T07:00:43.002Z,6.55
2018-12-18T07:03:10.582Z,6.17
2018-12-18T07:05:38.142Z,5.90
2018-12-18T07:08:05.731Z,5.37
2018-12-18T07:10:33.319Z,5.58
2018-12-18T07:13:00.885Z,5.92
2018-12-18T07:15:28.468Z,5.30
2018-12-18T07:17:56.110Z,5.70
2018-12-18T07:20:23.699Z,6.10
2018-12-18T07:22:52.230Z,5.65
2018-12-18T07:25:19.810Z,5.28
2018-12-18T07:27:47.371Z,5.75
2018-12-18T07:30:14.963Z,5.67
2018-12-18T07:32:42.527Z,5.12
2018-12-18T07:35:10.111Z,6.05
2018-12-18T07:37:37.666Z,6.17
2018-12-18T07:40:05.887Z,5.10
2018-12-18T07:42:33.543Z,5.37
2018-12-18T07:45:01.139Z,7.55
2018-12-18T07:47:28.719Z,6.28
2018-12-18T07:49:56.280Z,5.70
2018-12-18T07:52:23.938Z,5.00
2018-12-18T07:54:51.507Z,6.10
2018-12-18T07:57:19.091Z,5.35
2018-12-18T07:59:46.649Z,5.50
2018-12-18T08:02:14.231Z,6.70
2018-12-18T08:04:41.795Z,7.00
2018-12-18T08:07:09.378Z,5.65
2018-12-18T08:09:36.934Z,5.60
2018-12-18T08:12:04.518Z,5.42
2018-12-18T08:14:32.078Z,6.43
2018-12-18T08:16:59.671Z,6.83
2018-12-18T08:19:27.226Z,5.33
2018-12-18T08:21:54.811Z,6.22
2018-12-18T08:24:22.362Z,4.58
2018-12-18T08:26:49.948Z,4.67
2018-12-18T08:29:17.531Z,5.20
2018-12-18T08:31:45.086Z,5.10
2018-12-18T08:34:12.692Z,5.37
2018-12-18T08:36:40.255Z,7.13
2018-12-18T08:39:08.156Z,6.92
2018-12-18T08:41:35.710Z,6.12
2018-12-18T08:44:03.933Z,5.50
2018-12-18T08:46:31.578Z,7.53
2018-12-18T08:49:00.219Z,7.45
2018-12-18T08:51:27.975Z,8.15
2018-12-18T08:53:56.554Z,7.72
2018-12-18T08:56:24.232Z,7.50
2018-12-18T08:58:51.815Z,9.40
2018-12-18T09:01:20.051Z,8.35
2018-12-18T09:03:47.635Z,7.97
2018-12-18T09:06:15.195Z,9.20
2018-12-18T09:08:42.796Z,8.23
2018-12-18T09:11:10.351Z,7.10
2018-12-18T09:13:37.923Z,7.08
2018-12-18T09:16:07.527Z,10.68
2018-12-18T09:18:35.086Z,8.40
2018-12-18T09:21:02.673Z,7.00
2018-12-18T09:23:30.231Z,7.33
2018-12-18T09:25:58.056Z,7.12
2018-12-18T09:28:25.611Z,6.85
2018-12-18T09:30:53.199Z,5.92
2018-12-18T09:33:20.753Z,8.20
2018-12-18T09:35:49.797Z,6.62
2018-12-18T09:38:23.351Z,7.25
2018-12-18T09:40:56.750Z,5.43
2018-12-18T09:43:30.086Z,6.20
2018-12-18T09:45:57.666Z,4.42
2018-12-18T09:48:25.247Z,4.37
2018-12-18T09:50:52.815Z,4.20
2018-12-18T09:53:20.949Z,3.40
2018-12-18T09:55:48.519Z,3.10
2018-12-18T09:58:16.534Z,3.62
2018-12-18T10:00:44.094Z,2.97
2018-12-18T10:03:11.677Z,4.58
2018-12-18T10:05:39.250Z,3.15
2018-12-18T10:08:06.829Z,6.95
2018-12-18T10:10:34.395Z,11.78
2018-12-18T10:13:02.023Z,8.73
2018-12-18T10:15:29.584Z,6.10
2018-12-18T10:17:57.192Z,4.00
2018-12-18T10:20:24.796Z,2.77
2018-12-18T10:22:53.374Z,3.98
2018-12-18T10:25:20.942Z,3.33
2018-12-18T10:27:48.522Z,3.35
2018-12-18T10:30:16.111Z,11.60
2018-12-18T10:32:43.671Z,6.70
2018-12-18T10:35:11.348Z,4.13
2018-12-18T10:37:38.919Z,6.17
2018-12-18T10:40:08.471Z,5.08
2018-12-18T10:42:36.027Z,3.35
2018-12-18T10:45:13.586Z,3.33
2018-12-18T10:47:36.527Z,2.92
2018-12-18T10:50:04.727Z,3.10
2018-12-18T10:52:32.284Z,3.40
2018-12-18T10:54:59.874Z,5.25
2018-12-18T10:57:27.435Z,3.52
2018-12-18T10:59:55.025Z,2.77
2018-12-18T11:02:22.877Z,3.75
2018-12-18T11:04:50.485Z,3.05
2018-12-18T11:07:18.197Z,3.60
2018-12-18T11:09:46.025Z,4.22
2018-12-18T11:12:15.893Z,5.90
2018-12-18T11:14:44.444Z,4.10
2018-12-18T11:17:12.058Z,3.95
2018-12-18T11:19:39.888Z,3.27
2018-12-18T11:22:07.490Z,4.00
2018-12-18T11:24:35.238Z,4.63
2018-12-18T11:27:03.079Z,3.92
2018-12-18T11:29:30.855Z,4.22
2018-12-18T11:31:58.599Z,3.53
2018-12-18T11:34:27.611Z,5.35
2018-12-18T11:36:55.378Z,3.98
2018-12-18T11:39:23.180Z,4.95
2018-12-18T11:41:50.887Z,3.83
2018-12-18T11:44:18.457Z,5.15
2018-12-18T11:46:46.430Z,4.40
2018-12-18T11:49:14.707Z,4.45
2018-12-18T11:51:42.571Z,3.67
2018-12-18T11:54:10.335Z,5.17
2018-12-18T11:56:38.098Z,3.92
2018-12-18T11:59:06.147Z,6.80
2018-12-18T12:01:34.059Z,3.20
2018-12-18T12:04:01.674Z,4.63
2018-12-18T12:06:29.242Z,4.95
2018-12-18T12:08:56.838Z,5.05
2018-12-18T12:11:25.033Z,3.40
2018-12-18T12:13:52.647Z,5.33
2018-12-18T12:16:20.209Z,5.53
2018-12-18T12:18:47.791Z,4.42
2018-12-18T12:21:15.345Z,5.08
2018-12-18T12:23:42.992Z,6.10
2018-12-18T12:29:15.670Z,7.65
2018-12-18T12:31:43.682Z,6.45
2018-12-18T12:34:11.442Z,6.03
2018-12-18T12:36:39.271Z,6.75
2018-12-18T12:39:07.152Z,6.00
2018-12-18T12:41:34.915Z,7.40
2018-12-18T12:44:02.589Z,5.67
2018-12-18T12:46:30.389Z,6.17
2018-12-18T12:49:01.378Z,4.92
2018-12-18T12:51:29.279Z,5.55
2018-12-18T12:53:57.215Z,6.67
2018-12-18T12:56:25.015Z,7.58
2018-12-18T12:58:52.964Z,5.25
2018-12-18T13:01:20.937Z,5.33
2018-12-18T13:03:49.976Z,5.28
2018-12-18T13:06:18.034Z,4.83
2018-12-18T13:08:45.679Z,6.80
2018-12-18T13:11:13.509Z,6.37
2018-12-18T13:13:41.092Z,6.05
2018-12-18T13:16:08.675Z,7.45
2018-12-18T13:18:36.240Z,6.25
2018-12-18T13:21:03.843Z,7.00
2018-12-18T13:23:31.407Z,6.43
2018-12-18T13:25:58.995Z,7.75
2018-12-18T13:28:26.587Z,5.83
2018-12-18T13:30:54.158Z,6.53
2018-12-18T13:33:21.747Z,5.28
2018-12-18T13:35:49.314Z,6.08
2018-12-18T13:38:17.862Z,5.55
2018-12-18T13:40:45.419Z,6.72
2018-12-18T13:43:13.875Z,7.00
2018-12-18T13:45:41.441Z,6.35
2018-12-18T13:48:09.030Z,6.23
2018-12-18T13:50:36.591Z,4.87
2018-12-18T13:53:04.186Z,6.10
2018-12-18T13:55:36.686Z,6.25
2018-12-18T13:58:01.371Z,5.25
2018-12-18T14:00:28.934Z,5.10
2018-12-18T14:02:56.518Z,7.78
2018-12-18T14:05:24.091Z,5.30
2018-12-18T14:07:51.676Z,6.15
2018-12-18T14:10:19.232Z,7.00
2018-12-18T14:12:52.339Z,5.50
2018-12-18T14:15:20.356Z,4.35
2018-12-18T14:17:47.926Z,4.50
2018-12-18T14:20:15.520Z,4.72
2018-12-18T14:22:43.086Z,4.95
2018-12-18T14:25:10.686Z,4.72
2018-12-18T14:27:38.238Z,6.45
2018-12-18T14:30:06.448Z,5.12
2018-12-18T14:32:34.006Z,6.45
2018-12-18T14:35:01.586Z,5.70
2018-12-18T14:37:29.146Z,6.47
2018-12-18T14:39:56.722Z,5.57
2018-12-18T14:42:24.283Z,7.33
2018-12-18T14:44:51.874Z,6.37
2018-12-18T14:47:19.426Z,6.97
2018-12-18T14:49:47.010Z,6.95
2018-12-18T14:52:14.566Z,7.12
2018-12-18T14:54:42.367Z,6.30
2018-12-18T14:57:09.960Z,7.30
2018-12-18T14:59:37.634Z,6.45
2018-12-18T15:03:27.666Z,6.53
2018-12-18T15:05:55.251Z,6.08
2018-12-18T15:08:22.818Z,5.62
2018-12-18T15:10:50.611Z,6.87
2018-12-18T15:13:18.306Z,6.50
2018-12-18T15:15:45.895Z,7.53
2018-12-18T15:18:13.456Z,7.58
2018-12-18T15:20:41.164Z,56.05
2018-12-18T15:23:08.751Z,10.35
2018-12-18T15:25:36.317Z,7.90
2018-12-18T15:28:03.899Z,6.92
2018-12-18T15:30:31.465Z,8.98
2018-12-18T15:32:59.041Z,7.35
2018-12-18T15:35:27.022Z,7.22
2018-12-18T15:37:54.602Z,8.23
2018-12-18T15:40:22.407Z,7.42
2018-12-18T15:42:50.004Z,7.47
2018-12-18T15:45:17.590Z,7.20
2018-12-18T15:47:45.919Z,8.23
2018-12-18T15:50:13.482Z,8.60
2018-12-18T15:52:41.563Z,8.93
2018-12-18T15:55:09.118Z,9.00
2018-12-18T15:57:36.711Z,9.00
2018-12-18T16:00:05.312Z,8.88
2018-12-18T16:02:32.901Z,8.38
2018-12-18T16:05:00.483Z,8.30
2018-12-18T16:07:28.043Z,8.67
2018-12-18T16:09:55.635Z,7.92
2018-12-18T16:12:23.312Z,9.63
2018-12-18T16:14:50.896Z,8.00
2018-12-18T16:17:18.455Z,9.63
2018-12-18T16:19:46.042Z,8.53
2018-12-18T16:22:13.594Z,8.93
2018-12-18T16:24:41.191Z,6.83
2018-12-18T16:27:08.745Z,6.75
2018-12-18T16:29:36.354Z,7.25
2018-12-18T16:32:03.932Z,6.70
2018-12-18T16:34:31.519Z,6.60
2018-12-18T16:36:59.107Z,6.67
2018-12-18T16:39:26.701Z,6.37
2018-12-18T16:41:54.295Z,6.78
2018-12-18T16:44:22.399Z,6.72
2018-12-18T16:46:50.127Z,6.97
2018-12-18T16:49:17.694Z,6.85
2018-12-18T16:51:45.291Z,6.45
2018-12-18T16:54:13.358Z,6.65
2018-12-18T16:56:41.063Z,6.17
2018-12-18T16:59:08.759Z,7.17
2018-12-18T17:01:36.343Z,8.55
2018-12-18T17:04:05.173Z,7.20
2018-12-18T17:06:33.015Z,7.47
2018-12-18T17:09:00.825Z,7.95
2018-12-18T17:11:28.746Z,6.95
2018-12-18T17:13:56.396Z,7.55
2018-12-18T17:16:24.003Z,7.25
2018-12-18T17:18:51.747Z,7.40
2018-12-18T17:21:19.743Z,7.80
2018-12-18T17:23:47.454Z,9.23
2018-12-18T17:26:15.781Z,9.05
2018-12-18T17:28:43.511Z,11.97
2018-12-18T17:31:11.075Z,11.10
2018-12-18T17:33:38.672Z,11.57
2018-12-18T17:36:06.239Z,12.13
2018-12-18T17:38:33.866Z,13.15
2018-12-18T17:41:01.531Z,13.88
2018-12-18T17:43:29.439Z,13.80
2018-12-18T17:45:57.038Z,15.85
2018-12-18T17:48:24.622Z,16.55
2018-12-18T17:50:52.187Z,18.65
2018-12-18T17:53:20.599Z,20.27
2018-12-18T17:55:48.163Z,21.07
2018-12-18T17:58:15.754Z,20.07
2018-12-18T18:00:43.335Z,21.37
2018-12-18T18:03:10.931Z,23.32
2018-12-18T18:05:38.491Z,23.25
2018-12-18T18:08:06.078Z,25.55
2018-12-18T18:10:33.658Z,24.63
2018-12-18T18:13:01.242Z,26.17
2018-12-18T18:15:28.831Z,24.37
2018-12-18T18:17:56.387Z,26.80
2018-12-18T18:20:23.987Z,25.77
2018-12-18T18:22:52.850Z,25.82
2018-12-18T18:25:20.572Z,26.62
2018-12-18T18:27:48.159Z,27.82
2018-12-18T18:30:15.751Z,26.50
2018-12-18T18:32:43.314Z,25.92
2018-12-18T18:35:10.919Z,27.10
2018-12-18T18:37:38.522Z,25.05
2018-12-18T18:40:07.741Z,24.18
2018-12-18T18:42:35.422Z,25.23
2018-12-18T18:45:03.021Z,23.70
2018-12-18T18:47:30.585Z,24.05
2018-12-18T18:49:58.259Z,25.20
2018-12-18T18:52:25.824Z,29.50
2018-12-18T18:54:53.414Z,30.97
2018-12-18T18:57:21.025Z,24.10
2018-12-18T18:59:48.770Z,23.07
2018-12-18T19:02:16.364Z,24.50
2018-12-18T19:04:43.926Z,23.42
2018-12-18T19:07:11.650Z,24.37
2018-12-18T19:09:39.219Z,23.42
2018-12-18T19:12:07.591Z,23.07
2018-12-18T19:14:35.790Z,22.77
2018-12-18T19:17:03.391Z,24.45
2018-12-18T19:19:30.967Z,24.72
2018-12-18T19:21:58.675Z,22.30
2018-12-18T19:24:26.239Z,23.38
2018-12-18T19:26:53.829Z,22.20
2018-12-18T19:29:21.409Z,22.62
2018-12-18T19:31:49.079Z,22.80
2018-12-18T19:34:16.647Z,22.62
2018-12-18T19:36:44.455Z,22.55
2018-12-18T19:39:12.155Z,23.73
2018-12-18T19:41:39.724Z,24.07
2018-12-18T19:44:07.327Z,24.37
2018-12-18T19:46:35.740Z,23.57
2018-12-18T19:49:03.352Z,23.45
2018-12-18T19:51:30.919Z,22.98
2018-12-18T19:53:58.531Z,22.87
2018-12-18T19:56:26.098Z,23.40
2018-12-18T19:58:53.694Z,24.20
2018-12-18T20:01:21.267Z,23.65
2018-12-18T20:03:48.860Z,24.32
2018-12-18T20:06:16.428Z,23.52
2018-12-18T20:08:44.020Z,23.52
2018-12-18T20:11:11.692Z,23.38
2018-12-18T20:13:39.302Z,26.52
2018-12-18T20:16:06.871Z,23.85
2018-12-18T20:18:34.465Z,24.20
2018-12-18T20:21:02.036Z,24.87
2018-12-18T20:23:29.638Z,23.07
2018-12-18T20:25:57.603Z,23.35
2018-12-18T20:28:25.247Z,23.47
2018-12-18T20:30:53.085Z,23.80
2018-12-18T20:33:20.861Z,22.02
2018-12-18T20:35:48.820Z,23.15
2018-12-18T20:38:17.199Z,22.48
2018-12-18T20:40:45.015Z,22.97
2018-12-18T20:43:13.701Z,22.27
2018-12-18T20:45:41.573Z,23.52
2018-12-18T20:48:09.891Z,22.42
2018-12-18T20:50:37.858Z,22.93
2018-12-18T20:53:05.442Z,22.77
2018-12-18T20:55:33.188Z,22.93
2018-12-18T20:58:00.771Z,21.85
2018-12-18T21:00:28.375Z,22.35
2018-12-18T21:02:56.003Z,22.52
2018-12-18T21:05:23.683Z,23.17
2018-12-18T21:07:51.569Z,22.60
2018-12-18T21:10:19.134Z,23.10
2018-12-18T21:12:46.733Z,23.18
2018-12-18T21:15:14.353Z,21.02
2018-12-18T21:17:42.039Z,22.05
2018-12-18T21:20:10.267Z,20.20
2018-12-18T21:22:38.587Z,21.10
2018-12-18T21:25:06.775Z,21.37
2018-12-18T21:27:34.916Z,21.37
2018-12-18T21:30:02.491Z,21.40
2018-12-18T21:32:30.086Z,22.07
2018-12-18T21:34:57.658Z,22.25
2018-12-18T21:37:25.243Z,25.93
2018-12-18T21:39:52.814Z,24.52
2018-12-18T21:42:20.403Z,21.87
2018-12-18T21:44:48.082Z,22.62
2018-12-18T21:47:15.677Z,23.70
2018-12-18T21:49:43.253Z,22.80
2018-12-18T21:52:10.849Z,21.65
2018-12-18T21:54:38.447Z,22.37
2018-12-18T21:57:06.018Z,22.00
2018-12-18T21:59:33.737Z,21.80
2018-12-18T22:02:01.299Z,22.67
2018-12-18T22:04:29.134Z,21.68
2018-12-18T22:06:56.699Z,21.87
2018-12-18T22:09:24.287Z,22.55
2018-12-18T22:11:51.846Z,23.35
2018-12-18T22:14:20.079Z,22.42
2018-12-18T22:16:47.730Z,22.45
2018-12-18T22:19:15.338Z,23.73
2018-12-18T22:21:42.908Z,23.62
2018-12-18T22:24:10.503Z,21.57
2018-12-18T22:26:38.066Z,22.50
2018-12-18T22:29:05.667Z,23.70
2018-12-18T22:31:33.222Z,23.22
2018-12-18T22:34:00.812Z,24.40
2018-12-18T22:36:28.416Z,24.30
2018-12-18T22:38:55.987Z,23.70
2018-12-18T22:41:23.571Z,24.92
2018-12-18T22:43:51.143Z,24.00
2018-12-18T22:46:18.729Z,23.57
2018-12-18T22:48:46.304Z,23.50
2018-12-18T22:51:13.891Z,23.60
2018-12-18T22:53:41.450Z,23.92
2018-12-18T22:56:09.206Z,23.47
2018-12-18T22:58:36.771Z,23.50
2018-12-18T23:01:06.375Z,25.82
2018-12-18T23:03:34.031Z,23.67
2018-12-18T23:06:01.691Z,22.25
2018-12-18T23:10:42.578Z,23.27
2018-12-18T23:13:12.188Z,22.85
2018-12-18T23:15:39.741Z,23.57
2018-12-18T23:18:07.336Z,23.05
2018-12-18T23:20:34.902Z,22.55
2018-12-18T23:23:04.172Z,22.73
2018-12-18T23:25:31.739Z,23.67
2018-12-18T23:27:59.322Z,23.02
2018-12-18T23:30:26.891Z,23.80
2018-12-18T23:32:54.488Z,22.37
2018-12-18T23:35:22.051Z,23.12
2018-12-18T23:37:49.651Z,23.73
2018-12-18T23:40:17.219Z,22.45
2018-12-18T23:42:44.817Z,22.62
2018-12-18T23:45:12.382Z,22.80
2018-12-18T23:47:39.953Z,23.87
2018-12-18T23:50:07.562Z,24.47
2018-12-18T23:52:35.882Z,23.77
2018-12-18T23:55:04.623Z,23.98
2018-12-18T23:57:32.185Z,23.90
2018-12-18T23:59:59.799Z,23.67
